Terminal Aerodrome Forecast
Issued by NWS Hastings, NE

Home | Current Version | Previous Version | Text Only | Print | Product List | Glossary On
Versions: 1 2 3 4 5 6 7 8 9 10 11 12 13 14 15 16 17 18 19
000
FTUS43 KGID 262338
TAFGRI
TAF
KGRI 262338Z 2700/2724 VRB05KT P6SM SKC
     FM270600 19005KT P6SM FEW250
     FM271600 17012KT P6SM SCT070 SCT200=

USA.gov is the U.S. government's official web portal to all federal, state and local government web resources and services.